createdAt,value
2023-04-22T00:02:02.433Z,3.20
2023-04-22T00:04:34.732Z,3.50
2023-04-22T00:07:06.604Z,3.33
2023-04-22T00:09:38.823Z,3.50
2023-04-22T00:12:13.684Z,3.40
2023-04-22T00:14:45.401Z,3.57
2023-04-22T00:17:17.422Z,3.07
2023-04-22T00:19:49.113Z,3.07
2023-04-22T00:22:20.787Z,2.63
2023-04-22T00:24:52.459Z,3.40
2023-04-22T00:27:24.213Z,3.20
2023-04-22T00:29:56.272Z,3.27
2023-04-22T00:32:28.026Z,2.70
2023-04-22T00:34:59.725Z,3.30
2023-04-22T00:37:31.440Z,2.30
2023-04-22T00:40:03.440Z,2.90
2023-04-22T00:42:36.794Z,2.90
2023-04-22T00:45:11.881Z,2.90
2023-04-22T00:47:45.823Z,2.70
2023-04-22T00:50:17.902Z,2.57
2023-04-22T00:52:49.703Z,2.37
2023-04-22T00:55:21.969Z,2.87
2023-04-22T00:57:55.358Z,2.97
2023-04-22T01:00:28.200Z,2.50
2023-04-22T01:03:00.898Z,3.40
2023-04-22T01:05:33.346Z,2.90
2023-04-22T01:08:05.792Z,3.40
2023-04-22T01:10:37.731Z,2.67
2023-04-22T01:13:10.358Z,3.27
2023-04-22T01:15:42.143Z,2.83
2023-04-22T01:18:14.995Z,2.63
2023-04-22T01:20:46.818Z,2.50
2023-04-22T01:23:22.553Z,3.30
2023-04-22T01:25:54.630Z,2.53
2023-04-22T01:28:26.728Z,2.90
2023-04-22T01:30:59.803Z,3.13
2023-04-22T01:33:31.790Z,3.00
2023-04-22T01:36:03.658Z,3.30
2023-04-22T01:38:35.540Z,2.67
2023-04-22T01:41:09.432Z,2.73
2023-04-22T01:43:42.621Z,2.87
2023-04-22T01:46:16.462Z,3.17
2023-04-22T01:48:51.397Z,3.03
2023-04-22T01:51:26.400Z,3.03
2023-04-22T01:53:58.240Z,2.90
2023-04-22T01:56:30.056Z,3.20
2023-04-22T01:59:02.008Z,2.90
2023-04-22T02:01:37.542Z,3.27
2023-04-22T02:04:11.661Z,3.00
2023-04-22T02:06:43.474Z,2.70
2023-04-22T02:09:15.578Z,2.80
2023-04-22T02:11:47.294Z,3.07
2023-04-22T02:14:19.180Z,2.53
2023-04-22T02:16:51.750Z,2.53
2023-04-22T02:19:23.570Z,2.73
2023-04-22T02:21:55.742Z,2.83
2023-04-22T02:24:27.646Z,3.07
2023-04-22T02:26:59.424Z,2.97
2023-04-22T02:29:32.296Z,3.53
2023-04-22T02:32:04.006Z,2.83
2023-04-22T02:34:36.562Z,2.83
2023-04-22T02:37:08.476Z,2.67
2023-04-22T02:39:40.573Z,3.23
2023-04-22T02:42:12.605Z,3.13
2023-04-22T02:44:44.330Z,2.73
2023-04-22T02:47:16.663Z,3.10
2023-04-22T02:49:48.377Z,3.10
2023-04-22T02:52:20.675Z,2.90
2023-04-22T02:54:52.386Z,2.50
2023-04-22T02:57:24.079Z,3.07
2023-04-22T02:59:57.064Z,2.97
2023-04-22T03:02:29.552Z,2.87
2023-04-22T03:05:10.198Z,2.37
2023-04-22T03:07:42.079Z,2.53
2023-04-22T03:10:13.881Z,3.03
2023-04-22T03:12:45.629Z,2.80
2023-04-22T03:15:21.098Z,2.93
2023-04-22T03:17:53.333Z,2.53
2023-04-22T03:20:26.024Z,2.73
2023-04-22T03:22:58.900Z,2.90
2023-04-22T03:25:32.050Z,3.07
2023-04-22T03:28:04.320Z,2.90
2023-04-22T03:30:36.092Z,3.30
2023-04-22T03:33:08.143Z,2.90
2023-04-22T03:35:56.276Z,2.40
2023-04-22T03:38:28.924Z,3.20
2023-04-22T03:41:00.985Z,2.53
2023-04-22T03:43:50.536Z,3.00
2023-04-22T03:46:22.836Z,3.03
2023-04-22T03:49:08.349Z,3.10
2023-04-22T03:51:40.588Z,3.30
2023-04-22T03:54:16.837Z,2.90
2023-04-22T03:56:53.230Z,2.47
2023-04-22T03:59:27.324Z,2.70
2023-04-22T04:01:59.793Z,3.20
2023-04-22T04:04:32.594Z,2.93
2023-04-22T04:07:07.535Z,2.40
2023-04-22T04:09:39.471Z,2.40
2023-04-22T04:12:11.439Z,2.43
2023-04-22T04:14:47.933Z,2.33
2023-04-22T04:17:25.934Z,2.70
2023-04-22T04:19:58.381Z,2.83
2023-04-22T04:22:30.851Z,2.63
2023-04-22T04:25:06.858Z,3.00
2023-04-22T04:27:42.621Z,3.03
2023-04-22T04:30:17.770Z,3.40
2023-04-22T04:32:54.140Z,3.37
2023-04-22T04:35:26.404Z,3.40
2023-04-22T04:38:01.597Z,3.17
2023-04-22T04:40:34.859Z,3.20
2023-04-22T04:43:27.037Z,2.43
2023-04-22T04:46:05.738Z,3.00
2023-04-22T04:48:42.338Z,2.90
2023-04-22T04:51:14.987Z,3.10
2023-04-22T04:53:55.775Z,3.00
2023-04-22T04:56:28.663Z,3.07
2023-04-22T04:59:00.505Z,3.60
2023-04-22T05:01:33.240Z,2.83
2023-04-22T05:04:11.483Z,3.20
2023-04-22T05:06:46.093Z,3.30
2023-04-22T05:09:19.050Z,2.90
2023-04-22T05:11:53.206Z,2.97
2023-04-22T05:14:26.425Z,3.00
2023-04-22T05:16:58.457Z,2.70
2023-04-22T05:19:30.380Z,2.63
2023-04-22T05:22:02.375Z,2.97
2023-04-22T05:24:34.720Z,2.67
2023-04-22T05:27:07.086Z,2.40
2023-04-22T05:29:39.638Z,2.83
2023-04-22T05:32:12.341Z,2.97
2023-04-22T05:34:44.395Z,3.00
2023-04-22T05:37:16.921Z,3.10
2023-04-22T05:39:49.212Z,2.90
2023-04-22T05:42:21.039Z,3.40
2023-04-22T05:44:54.017Z,2.63
2023-04-22T05:47:25.857Z,2.67
2023-04-22T05:49:58.119Z,3.30
2023-04-22T05:52:39.093Z,2.77
2023-04-22T05:55:16.918Z,3.00
2023-04-22T05:57:51.380Z,3.13
2023-04-22T06:00:37.033Z,2.77
2023-04-22T06:03:23.262Z,3.57
2023-04-22T06:05:55.560Z,3.67
2023-04-22T06:08:27.583Z,3.23
2023-04-22T06:10:59.339Z,3.20
2023-04-22T06:13:33.950Z,3.10
2023-04-22T06:18:38.783Z,3.80
2023-04-22T06:21:15.589Z,3.40
2023-04-22T06:23:47.369Z,3.37
2023-04-22T06:26:19.822Z,3.13
2023-04-22T06:28:51.613Z,3.37
2023-04-22T06:31:25.218Z,3.33
2023-04-22T06:33:57.003Z,2.97
2023-04-22T06:36:30.577Z,3.07
2023-04-22T06:39:06.457Z,2.67
2023-04-22T06:42:07.711Z,3.40
2023-04-22T06:45:09.437Z,3.17
2023-04-22T06:47:59.720Z,3.17
2023-04-22T06:50:42.374Z,3.13
2023-04-22T06:53:14.165Z,3.43
2023-04-22T06:55:46.208Z,3.50
2023-04-22T06:58:17.966Z,3.53
2023-04-22T07:00:49.952Z,3.27
2023-04-22T07:03:21.803Z,2.90
2023-04-22T07:06:05.396Z,3.13
2023-04-22T07:08:38.586Z,3.30
2023-04-22T07:11:12.531Z,3.53
2023-04-22T07:14:08.293Z,3.50
2023-04-22T07:16:40.096Z,2.77
2023-04-22T07:19:11.825Z,3.50
2023-04-22T07:21:43.630Z,3.13
2023-04-22T07:24:15.881Z,3.33
2023-04-22T07:26:47.696Z,3.40
2023-04-22T07:29:19.553Z,2.97
2023-04-22T07:31:51.268Z,2.87
2023-04-22T07:34:23.185Z,2.63
2023-04-22T07:36:54.972Z,2.87
2023-04-22T07:39:26.731Z,3.20
2023-04-22T07:41:58.680Z,3.00
2023-04-22T07:44:31.171Z,2.60
2023-04-22T07:47:02.953Z,2.53
2023-04-22T07:49:34.752Z,3.07
2023-04-22T07:52:06.579Z,2.87
2023-04-22T07:54:38.269Z,2.23
2023-04-22T07:57:10.000Z,2.60
2023-04-22T07:59:41.901Z,2.50
2023-04-22T08:02:13.841Z,3.00
2023-04-22T08:04:45.894Z,2.33
2023-04-22T08:07:32.529Z,2.47
2023-04-22T08:10:05.710Z,2.33
2023-04-22T08:12:37.720Z,3.03
2023-04-22T08:15:09.935Z,2.80
2023-04-22T08:17:41.727Z,2.80
2023-04-22T08:20:15.490Z,2.93
2023-04-22T08:22:47.419Z,3.10
2023-04-22T08:25:19.228Z,3.00
2023-04-22T08:27:51.742Z,2.97
2023-04-22T08:30:23.667Z,2.80
2023-04-22T08:32:55.490Z,2.40
2023-04-22T08:35:27.295Z,2.50
2023-04-22T08:37:58.995Z,3.03
2023-04-22T08:40:30.776Z,2.80
2023-04-22T08:43:03.075Z,2.67
2023-04-22T08:45:35.385Z,2.97
2023-04-22T08:48:11.842Z,2.43
2023-04-22T08:50:44.277Z,2.90
2023-04-22T08:53:16.136Z,2.60
2023-04-22T08:55:49.608Z,2.70
2023-04-22T08:58:22.716Z,2.37
2023-04-22T09:00:55.911Z,2.90
2023-04-22T09:03:27.907Z,3.00
2023-04-22T09:06:01.206Z,3.00
2023-04-22T09:08:33.246Z,2.40
2023-04-22T09:11:05.157Z,2.80
2023-04-22T09:13:37.794Z,2.70
2023-04-22T09:16:10.137Z,2.83
2023-04-22T09:18:43.060Z,2.83
2023-04-22T09:21:15.065Z,2.73
2023-04-22T09:23:52.238Z,2.53
2023-04-22T09:26:26.110Z,2.67
2023-04-22T09:29:00.138Z,2.77
2023-04-22T09:31:32.897Z,2.53
2023-04-22T09:34:05.167Z,2.53
2023-04-22T09:36:40.704Z,2.73
2023-04-22T09:39:12.523Z,2.83
2023-04-22T09:41:44.368Z,2.50
2023-04-22T09:44:18.060Z,2.77
2023-04-22T09:46:50.561Z,2.20
2023-04-22T09:49:22.343Z,2.50
2023-04-22T09:52:00.636Z,2.73
2023-04-22T09:54:32.461Z,2.33
2023-04-22T09:57:05.391Z,2.73
2023-04-22T09:59:38.446Z,1.80
2023-04-22T10:02:10.930Z,1.90
2023-04-22T10:04:42.860Z,2.57
2023-04-22T10:07:15.218Z,2.60
2023-04-22T10:09:47.541Z,2.70
2023-04-22T10:12:26.098Z,2.10
2023-04-22T10:15:01.317Z,2.07
2023-04-22T10:17:36.306Z,2.10
2023-04-22T10:20:15.101Z,2.67
2023-04-22T10:22:47.522Z,2.83
2023-04-22T10:25:27.087Z,2.60
2023-04-22T10:28:04.946Z,2.77
2023-04-22T10:30:38.948Z,2.60
2023-04-22T10:33:28.782Z,2.60
2023-04-22T10:36:15.472Z,3.07
2023-04-22T10:38:50.240Z,2.00
2023-04-22T10:41:33.557Z,2.63
2023-04-22T10:44:08.902Z,2.50
2023-04-22T10:46:42.393Z,2.40
2023-04-22T10:49:22.018Z,2.57
2023-04-22T10:51:55.590Z,2.67
2023-04-22T10:54:31.019Z,2.47
2023-04-22T10:57:15.432Z,2.67
2023-04-22T10:59:51.579Z,2.23
2023-04-22T11:02:23.981Z,2.60
2023-04-22T11:05:18.716Z,2.10
2023-04-22T11:08:01.299Z,2.30
2023-04-22T11:10:43.778Z,2.13
2023-04-22T11:13:21.329Z,2.60
2023-04-22T11:15:55.703Z,1.97
2023-04-22T11:18:27.606Z,2.23
2023-04-22T11:21:06.329Z,2.10
2023-04-22T11:23:38.129Z,1.93
2023-04-22T11:26:09.832Z,2.37
2023-04-22T11:28:48.071Z,1.60
2023-04-22T11:31:20.003Z,1.67
2023-04-22T11:33:51.847Z,1.50
2023-04-22T11:36:23.981Z,2.20
2023-04-22T11:38:56.478Z,2.37
2023-04-22T11:41:29.962Z,1.90
2023-04-22T11:44:02.284Z,1.50
2023-04-22T11:46:39.528Z,1.40
2023-04-22T11:49:15.154Z,1.60
2023-04-22T11:51:56.849Z,1.37
2023-04-22T11:54:36.383Z,1.47
2023-04-22T11:57:09.396Z,1.50
2023-04-22T11:59:42.381Z,0.80
2023-04-22T12:02:17.238Z,1.10
2023-04-22T12:04:49.044Z,1.00
2023-04-22T12:07:20.906Z,1.47
2023-04-22T12:09:56.344Z,1.40
2023-04-22T12:12:28.280Z,1.30
2023-04-22T12:15:08.498Z,0.83
2023-04-22T12:17:40.831Z,1.00
2023-04-22T12:20:13.330Z,1.07
2023-04-22T12:22:45.342Z,1.83
2023-04-22T12:25:20.567Z,1.43
2023-04-22T12:27:52.287Z,1.23
2023-04-22T12:30:24.901Z,1.20
2023-04-22T12:32:57.324Z,1.10
2023-04-22T12:35:29.129Z,1.20
2023-04-22T12:38:02.359Z,1.30
2023-04-22T12:40:34.080Z,0.80
2023-04-22T12:43:06.197Z,0.93
2023-04-22T12:45:38.177Z,1.07
2023-04-22T12:48:10.086Z,0.97
2023-04-22T12:50:42.060Z,0.90
2023-04-22T12:53:14.816Z,1.00
2023-04-22T12:55:46.985Z,0.80
2023-04-22T12:58:18.716Z,0.97
2023-04-22T13:00:50.512Z,1.00
2023-04-22T13:03:22.362Z,0.80
2023-04-22T13:05:55.040Z,1.00
2023-04-22T13:08:27.738Z,1.00
2023-04-22T13:11:00.268Z,1.30
2023-04-22T13:13:32.266Z,0.80
2023-04-22T13:16:04.305Z,1.20
2023-04-22T13:18:36.220Z,1.30
2023-04-22T13:21:08.291Z,1.20
2023-04-22T13:23:40.088Z,1.10
2023-04-22T13:26:12.292Z,1.07
2023-04-22T13:28:44.027Z,0.97
2023-04-22T13:31:16.252Z,1.00
2023-04-22T13:33:48.074Z,1.43
2023-04-22T13:36:19.795Z,1.13
2023-04-22T13:38:51.598Z,1.30
2023-04-22T13:41:23.297Z,1.30
2023-04-22T13:43:59.578Z,1.20
2023-04-22T13:46:31.437Z,1.20
2023-04-22T13:49:03.253Z,1.60
2023-04-22T13:51:37.222Z,1.57
2023-04-22T13:54:08.964Z,1.50
2023-04-22T13:56:41.300Z,1.20
2023-04-22T13:59:13.155Z,1.27
2023-04-22T14:01:44.872Z,1.20
2023-04-22T14:04:16.629Z,1.33
2023-04-22T14:06:48.402Z,0.90
2023-04-22T14:09:20.183Z,1.00
2023-04-22T14:11:51.935Z,1.10
2023-04-22T14:14:23.760Z,1.30
2023-04-22T14:16:55.974Z,1.40
2023-04-22T14:19:28.970Z,1.37
2023-04-22T14:22:00.729Z,1.20
2023-04-22T14:24:32.909Z,1.20
2023-04-22T14:27:05.152Z,1.27
2023-04-22T14:29:36.882Z,0.80
2023-04-22T14:32:08.581Z,1.30
2023-04-22T14:34:40.400Z,1.17
2023-04-22T14:37:12.648Z,1.23
2023-04-22T14:39:44.373Z,1.30
2023-04-22T14:42:18.108Z,1.10
2023-04-22T14:44:49.885Z,1.10
2023-04-22T14:47:21.604Z,1.23
2023-04-22T14:49:53.340Z,1.07
2023-04-22T14:52:25.260Z,1.00
2023-04-22T14:54:57.236Z,1.10
2023-04-22T14:57:29.501Z,1.10
2023-04-22T15:00:01.422Z,1.53
2023-04-22T15:02:33.422Z,1.30
2023-04-22T15:05:05.710Z,1.07
2023-04-22T15:07:37.443Z,1.10
2023-04-22T15:10:09.501Z,1.17
2023-04-22T15:12:41.230Z,1.30
2023-04-22T15:15:15.726Z,1.07
2023-04-22T15:17:47.697Z,1.03
2023-04-22T15:20:19.447Z,0.97
2023-04-22T15:22:51.985Z,1.40
2023-04-22T15:25:24.777Z,1.00
2023-04-22T15:27:56.991Z,1.10
2023-04-22T15:30:28.729Z,0.97
2023-04-22T15:33:00.522Z,1.40
2023-04-22T15:35:32.389Z,1.10
2023-04-22T15:38:05.660Z,1.13
2023-04-22T15:40:37.404Z,1.10
2023-04-22T15:43:09.116Z,1.10
2023-04-22T15:45:41.225Z,1.40
2023-04-22T15:48:12.945Z,1.30
2023-04-22T15:50:44.768Z,0.93
2023-04-22T15:53:16.522Z,0.97
2023-04-22T15:55:48.740Z,1.10
2023-04-22T15:58:20.636Z,1.10
2023-04-22T16:00:52.566Z,1.10
2023-04-22T16:03:24.571Z,1.10
2023-04-22T16:05:56.493Z,0.93
2023-04-22T16:08:28.238Z,0.97
2023-04-22T16:10:59.958Z,1.20
2023-04-22T16:13:31.825Z,1.00
2023-04-22T16:16:03.572Z,1.10
2023-04-22T16:18:35.466Z,0.90
2023-04-22T16:21:07.362Z,1.10
2023-04-22T16:23:39.126Z,1.10
2023-04-22T16:26:10.955Z,1.10
2023-04-22T16:28:42.722Z,1.20
2023-04-22T16:31:14.598Z,0.87
2023-04-22T16:33:46.338Z,0.90
2023-04-22T16:36:18.135Z,1.03
2023-04-22T16:38:49.851Z,1.00
2023-04-22T16:41:21.691Z,0.90
2023-04-22T16:43:53.429Z,1.20
2023-04-22T16:46:25.210Z,1.10
2023-04-22T16:48:56.935Z,1.00
2023-04-22T16:51:28.654Z,0.90
2023-04-22T16:54:00.457Z,1.37
2023-04-22T16:56:32.206Z,1.00
2023-04-22T16:59:03.927Z,1.20
2023-04-22T17:01:36.150Z,1.20
2023-04-22T17:04:08.818Z,1.07
2023-04-22T17:06:41.005Z,0.97
2023-04-22T17:09:12.830Z,1.00
2023-04-22T17:11:44.781Z,0.70
2023-04-22T17:14:16.514Z,0.80
2023-04-22T17:16:48.264Z,0.60
2023-04-22T17:19:19.989Z,0.90
2023-04-22T17:21:51.752Z,0.80
2023-04-22T17:24:24.829Z,0.60
2023-04-22T17:26:56.665Z,0.80
2023-04-22T17:29:28.468Z,0.83
2023-04-22T17:32:00.407Z,0.80
2023-04-22T17:34:32.083Z,0.80
2023-04-22T17:37:03.861Z,0.90
2023-04-22T17:39:35.836Z,0.70
2023-04-22T17:42:07.934Z,0.60
2023-04-22T17:44:39.867Z,0.90
2023-04-22T17:47:11.755Z,1.03
2023-04-22T17:49:43.773Z,0.80
2023-04-22T17:52:15.930Z,0.90
2023-04-22T17:54:47.658Z,1.03
2023-04-22T17:57:19.400Z,1.40
2023-04-22T17:59:51.219Z,1.20
2023-04-22T18:02:23.429Z,1.40
2023-04-22T18:04:55.330Z,1.30
2023-04-22T18:07:27.056Z,1.33
2023-04-22T18:09:58.777Z,1.20
2023-04-22T18:12:30.849Z,1.10
2023-04-22T18:15:02.827Z,1.10
2023-04-22T18:17:34.709Z,1.00
2023-04-22T18:20:17.379Z,1.20
2023-04-22T18:22:53.545Z,0.87
2023-04-22T18:25:25.922Z,1.00
2023-04-22T18:27:57.740Z,1.20
2023-04-22T18:30:30.829Z,1.17
2023-04-22T18:33:04.688Z,1.40
2023-04-22T18:35:36.605Z,1.80
2023-04-22T18:38:08.304Z,1.63
2023-04-22T18:40:40.956Z,1.50
2023-04-22T18:43:12.656Z,1.13
2023-04-22T18:45:44.501Z,1.60
2023-04-22T18:48:18.556Z,1.70
2023-04-22T18:50:50.548Z,1.30
2023-04-22T18:53:22.401Z,1.50
2023-04-22T18:55:54.122Z,1.60
2023-04-22T18:58:25.871Z,1.90
2023-04-22T19:00:57.794Z,1.70
2023-04-22T19:03:29.728Z,1.93
2023-04-22T19:06:01.636Z,1.63
2023-04-22T19:08:33.955Z,1.80
2023-04-22T19:11:05.917Z,1.60
2023-04-22T19:13:37.686Z,2.03
2023-04-22T19:16:09.529Z,2.07
2023-04-22T19:18:42.919Z,2.00
2023-04-22T19:21:16.329Z,1.87
2023-04-22T19:23:48.646Z,1.70
2023-04-22T19:26:21.021Z,1.87
2023-04-22T19:28:52.748Z,2.10
2023-04-22T19:31:25.096Z,2.07
2023-04-22T19:33:57.102Z,2.07
2023-04-22T19:36:29.095Z,1.30
2023-04-22T19:39:00.802Z,1.70
2023-04-22T19:41:34.032Z,2.20
2023-04-22T19:44:06.262Z,1.70
2023-04-22T19:46:38.339Z,2.00
2023-04-22T19:49:10.404Z,2.17
2023-04-22T19:51:42.313Z,1.97
2023-04-22T19:54:14.950Z,1.90
2023-04-22T19:56:48.965Z,2.27
2023-04-22T19:59:20.748Z,2.33
2023-04-22T20:01:52.754Z,2.37
2023-04-22T20:04:24.769Z,2.70
2023-04-22T20:06:57.722Z,2.07
2023-04-22T20:09:32.983Z,2.07
2023-04-22T20:12:05.183Z,1.97
2023-04-22T20:14:37.889Z,2.27
2023-04-22T20:17:09.831Z,2.23
2023-04-22T20:19:41.908Z,2.17
2023-04-22T20:22:16.863Z,2.70
2023-04-22T20:25:01.963Z,2.80
2023-04-22T20:27:34.942Z,1.80
2023-04-22T20:30:07.681Z,2.47
2023-04-22T20:32:39.616Z,2.50
2023-04-22T20:35:14.845Z,2.43
2023-04-22T20:37:48.199Z,2.30
2023-04-22T20:40:23.246Z,2.40
2023-04-22T20:42:57.656Z,2.53
2023-04-22T20:45:29.491Z,2.57
2023-04-22T20:48:01.369Z,2.40
2023-04-22T20:50:33.751Z,2.40
2023-04-22T20:53:05.710Z,3.20
2023-04-22T20:55:37.755Z,2.60
2023-04-22T20:58:09.741Z,2.70
2023-04-22T21:00:42.172Z,3.20
2023-04-22T21:03:15.667Z,2.30
2023-04-22T21:05:47.749Z,2.60
2023-04-22T21:08:24.529Z,3.07
2023-04-22T21:10:57.018Z,2.37
2023-04-22T21:13:28.993Z,2.90
2023-04-22T21:16:10.450Z,2.80
2023-04-22T21:18:44.676Z,2.77
2023-04-22T21:21:18.525Z,2.87
2023-04-22T21:23:51.737Z,3.00
2023-04-22T21:26:23.972Z,3.00
2023-04-22T21:28:56.550Z,4.17
2023-04-22T21:31:28.355Z,4.03
2023-04-22T21:34:04.384Z,3.37
2023-04-22T21:36:36.136Z,2.60
2023-04-22T21:39:08.415Z,2.27
2023-04-22T21:41:40.603Z,2.70
2023-04-22T21:44:12.384Z,2.57
2023-04-22T21:46:45.385Z,1.83
2023-04-22T21:49:17.225Z,2.20
2023-04-22T21:51:48.958Z,2.40
2023-04-22T21:54:20.709Z,2.30
2023-04-22T21:56:52.530Z,2.07
2023-04-22T21:59:24.765Z,2.17
2023-04-22T22:01:56.549Z,2.00
2023-04-22T22:04:28.564Z,2.23
2023-04-22T22:07:00.799Z,2.47
2023-04-22T22:09:32.950Z,2.33
2023-04-22T22:12:04.922Z,2.60
2023-04-22T22:14:38.129Z,2.00
2023-04-22T22:17:10.135Z,2.10
2023-04-22T22:19:41.973Z,1.97
2023-04-22T22:22:13.711Z,1.90
2023-04-22T22:24:45.658Z,2.37
2023-04-22T22:27:17.376Z,2.40
2023-04-22T22:29:49.127Z,2.10
2023-04-22T22:32:21.111Z,2.10
2023-04-22T22:34:52.813Z,2.60
2023-04-22T22:37:24.748Z,2.07
2023-04-22T22:39:56.520Z,2.50
2023-04-22T22:42:28.244Z,3.10
2023-04-22T22:45:00.185Z,2.60
2023-04-22T22:47:31.998Z,2.60
2023-04-22T22:50:04.089Z,2.57
2023-04-22T22:52:35.998Z,2.70
2023-04-22T22:55:08.287Z,2.57
2023-04-22T22:57:39.988Z,2.40
2023-04-22T23:00:12.694Z,2.57
2023-04-22T23:02:44.618Z,2.63
2023-04-22T23:05:16.531Z,2.47
2023-04-22T23:07:48.353Z,2.90
2023-04-22T23:10:20.808Z,2.33
2023-04-22T23:12:52.598Z,2.57
2023-04-22T23:15:24.325Z,2.83
2023-04-22T23:17:56.143Z,2.50
2023-04-22T23:20:28.046Z,2.27
2023-04-22T23:23:00.516Z,2.37
2023-04-22T23:25:32.529Z,2.87
2023-04-22T23:28:04.541Z,2.67
2023-04-22T23:30:36.593Z,2.40
2023-04-22T23:33:12.348Z,2.17
2023-04-22T23:35:45.804Z,2.20
2023-04-22T23:38:17.543Z,2.50
2023-04-22T23:40:49.295Z,2.97
2023-04-22T23:43:21.001Z,2.50
2023-04-22T23:45:52.842Z,2.60
2023-04-22T23:48:24.645Z,2.40
2023-04-22T23:50:56.412Z,2.97
2023-04-22T23:53:28.166Z,2.43
2023-04-22T23:56:00.497Z,2.50
2023-04-22T23:58:32.412Z,2.40
